sensor_id;sensor_type;location;lat;lon;timestamp;temperature;humidity
9640;DHT22;51745;50.872;4.732;2022-07-01T00:01:34;11.70;99.90
9640;DHT22;51745;50.872;4.732;2022-07-01T00:04:22;11.70;99.90
9640;DHT22;51745;50.872;4.732;2022-07-01T00:07:32;11.60;99.90
9640;DHT22;51745;50.872;4.732;2022-07-01T00:10:20;11.70;99.90
9640;DHT22;51745;50.872;4.732;2022-07-01T00:13:08;11.60;99.90
9640;DHT22;51745;50.872;4.732;2022-07-01T00:15:55;11.60;99.90
9640;DHT22;51745;50.872;4.732;2022-07-01T00:18:44;11.60;99.90
9640;DHT22;51745;50.872;4.732;2022-07-01T00:21:32;11.60;99.90
9640;DHT22;51745;50.872;4.732;2022-07-01T00:24:20;11.70;99.90
9640;DHT22;51745;50.872;4.732;2022-07-01T00:27:08;11.60;99.90
9640;DHT22;51745;50.872;4.732;2022-07-01T00:29:56;11.70;99.90
9640;DHT22;51745;50.872;4.732;2022-07-01T00:32:46;11.70;99.90
9640;DHT22;51745;50.872;4.732;2022-07-01T00:35:35;11.70;99.90
9640;DHT22;51745;50.872;4.732;2022-07-01T00:38:23;11.70;99.90
9640;DHT22;51745;50.872;4.732;2022-07-01T00:41:11;11.60;99.90
9640;DHT22;51745;50.872;4.732;2022-07-01T00:43:59;11.60;99.90
9640;DHT22;51745;50.872;4.732;2022-07-01T00:46:47;11.60;99.90
9640;DHT22;51745;50.872;4.732;2022-07-01T00:49:37;11.50;99.90
9640;DHT22;51745;50.872;4.732;2022-07-01T00:52:27;11.50;99.90
9640;DHT22;51745;50.872;4.732;2022-07-01T00:55:16;11.50;99.90
9640;DHT22;51745;50.872;4.732;2022-07-01T00:58:07;11.50;99.90
9640;DHT22;51745;50.872;4.732;2022-07-01T01:00:55;11.50;99.90
9640;DHT22;51745;50.872;4.732;2022-07-01T01:03:43;11.60;99.90
9640;DHT22;51745;50.872;4.732;2022-07-01T01:06:31;11.50;99.90
9640;DHT22;51745;50.872;4.732;2022-07-01T01:09:21;11.50;99.90
9640;DHT22;51745;50.872;4.732;2022-07-01T01:12:09;11.50;99.90
9640;DHT22;51745;50.872;4.732;2022-07-01T01:14:58;11.50;99.90
9640;DHT22;51745;50.872;4.732;2022-07-01T01:17:46;11.50;99.90
9640;DHT22;51745;50.872;4.732;2022-07-01T01:20:35;11.50;99.90
9640;DHT22;51745;50.872;4.732;2022-07-01T01:23:23;11.50;99.90
9640;DHT22;51745;50.872;4.732;2022-07-01T01:26:14;11.50;99.90
9640;DHT22;51745;50.872;4.732;2022-07-01T01:29:02;11.50;99.90
9640;DHT22;51745;50.872;4.732;2022-07-01T01:31:50;11.50;99.90
9640;DHT22;51745;50.872;4.732;2022-07-01T01:34:38;11.50;99.90
9640;DHT22;51745;50.872;4.732;2022-07-01T01:37:28;11.50;99.90
9640;DHT22;51745;50.872;4.732;2022-07-01T01:40:16;11.50;99.90
9640;DHT22;51745;50.872;4.732;2022-07-01T01:43:04;11.50;99.90
9640;DHT22;51745;50.872;4.732;2022-07-01T01:45:52;11.50;99.90
9640;DHT22;51745;50.872;4.732;2022-07-01T01:48:39;11.50;99.90
9640;DHT22;51745;50.872;4.732;2022-07-01T01:51:29;11.50;99.90
9640;DHT22;51745;50.872;4.732;2022-07-01T01:54:22;11.50;99.90
9640;DHT22;51745;50.872;4.732;2022-07-01T01:57:10;11.60;99.90
9640;DHT22;51745;50.872;4.732;2022-07-01T01:59:58;11.60;99.90
9640;DHT22;51745;50.872;4.732;2022-07-01T02:02:45;11.50;99.90
9640;DHT22;51745;50.872;4.732;2022-07-01T02:05:35;11.60;99.90
9640;DHT22;51745;50.872;4.732;2022-07-01T02:08:22;11.70;99.90
9640;DHT22;51745;50.872;4.732;2022-07-01T02:11:12;11.80;99.90
9640;DHT22;51745;50.872;4.732;2022-07-01T02:14:00;11.70;99.90
9640;DHT22;51745;50.872;4.732;2022-07-01T02:16:48;11.70;99.90
9640;DHT22;51745;50.872;4.732;2022-07-01T02:19:35;11.60;99.90
9640;DHT22;51745;50.872;4.732;2022-07-01T02:22:24;12.00;99.90
9640;DHT22;51745;50.872;4.732;2022-07-01T02:25:12;11.70;99.90
9640;DHT22;51745;50.872;4.732;2022-07-01T02:28:01;11.70;99.90
9640;DHT22;51745;50.872;4.732;2022-07-01T02:30:49;11.60;99.90
9640;DHT22;51745;50.872;4.732;2022-07-01T02:33:39;11.70;99.90
9640;DHT22;51745;50.872;4.732;2022-07-01T02:36:27;11.60;99.90
9640;DHT22;51745;50.872;4.732;2022-07-01T02:39:16;11.60;99.90
9640;DHT22;51745;50.872;4.732;2022-07-01T02:42:06;11.60;99.90
9640;DHT22;51745;50.872;4.732;2022-07-01T02:45:22;11.60;99.90
9640;DHT22;51745;50.872;4.732;2022-07-01T02:48:11;11.60;99.90
9640;DHT22;51745;50.872;4.732;2022-07-01T02:50:58;11.60;99.90
9640;DHT22;51745;50.872;4.732;2022-07-01T02:53:46;11.60;99.90
9640;DHT22;51745;50.872;4.732;2022-07-01T02:56:34;11.60;99.90
9640;DHT22;51745;50.872;4.732;2022-07-01T02:59:21;11.60;99.90
9640;DHT22;51745;50.872;4.732;2022-07-01T03:02:11;11.60;99.90
9640;DHT22;51745;50.872;4.732;2022-07-01T03:04:59;11.60;99.90
9640;DHT22;51745;50.872;4.732;2022-07-01T03:07:50;11.60;99.90
9640;DHT22;51745;50.872;4.732;2022-07-01T03:10:37;11.70;99.90
9640;DHT22;51745;50.872;4.732;2022-07-01T03:13:25;11.70;99.90
9640;DHT22;51745;50.872;4.732;2022-07-01T03:16:13;11.70;99.90
9640;DHT22;51745;50.872;4.732;2022-07-01T03:19:03;11.70;99.90
9640;DHT22;51745;50.872;4.732;2022-07-01T03:21:51;11.70;99.90
9640;DHT22;51745;50.872;4.732;2022-07-01T03:24:39;11.70;99.90
9640;DHT22;51745;50.872;4.732;2022-07-01T03:27:27;11.70;99.90
9640;DHT22;51745;50.872;4.732;2022-07-01T03:30:14;11.70;99.90
9640;DHT22;51745;50.872;4.732;2022-07-01T03:33:04;11.70;99.90
9640;DHT22;51745;50.872;4.732;2022-07-01T03:35:56;11.70;99.90
9640;DHT22;51745;50.872;4.732;2022-07-01T03:38:44;11.80;99.90
9640;DHT22;51745;50.872;4.732;2022-07-01T03:41:31;11.80;99.90
9640;DHT22;51745;50.872;4.732;2022-07-01T03:44:19;11.80;99.90
9640;DHT22;51745;50.872;4.732;2022-07-01T03:47:09;11.90;99.90
9640;DHT22;51745;50.872;4.732;2022-07-01T03:49:56;11.90;99.90
9640;DHT22;51745;50.872;4.732;2022-07-01T03:52:46;11.90;99.90
9640;DHT22;51745;50.872;4.732;2022-07-01T03:55:35;11.90;99.90
9640;DHT22;51745;50.872;4.732;2022-07-01T03:58:21;10.70;99.90
9640;DHT22;51745;50.872;4.732;2022-07-01T04:01:09;11.90;99.90
9640;DHT22;51745;50.872;4.732;2022-07-01T04:03:57;11.90;99.90
9640;DHT22;51745;50.872;4.732;2022-07-01T04:06:45;11.90;99.90
9640;DHT22;51745;50.872;4.732;2022-07-01T04:09:35;11.90;99.90
9640;DHT22;51745;50.872;4.732;2022-07-01T04:12:23;11.90;99.90
9640;DHT22;51745;50.872;4.732;2022-07-01T04:15:11;11.80;99.90
9640;DHT22;51745;50.872;4.732;2022-07-01T04:17:58;12.60;99.90
9640;DHT22;51745;50.872;4.732;2022-07-01T04:20:47;11.90;99.90
9640;DHT22;51745;50.872;4.732;2022-07-01T04:23:55;12.00;99.90
9640;DHT22;51745;50.872;4.732;2022-07-01T04:26:45;12.10;99.90
9640;DHT22;51745;50.872;4.732;2022-07-01T04:29:32;12.10;99.90
9640;DHT22;51745;50.872;4.732;2022-07-01T04:32:21;12.10;99.90
9640;DHT22;51745;50.872;4.732;2022-07-01T04:35:11;12.10;99.90
9640;DHT22;51745;50.872;4.732;2022-07-01T04:38:00;12.00;99.90
9640;DHT22;51745;50.872;4.732;2022-07-01T04:40:47;12.00;99.90
9640;DHT22;51745;50.872;4.732;2022-07-01T04:43:50;12.00;99.90
9640;DHT22;51745;50.872;4.732;2022-07-01T04:46:39;11.70;99.90
9640;DHT22;51745;50.872;4.732;2022-07-01T04:49:30;11.90;99.90
9640;DHT22;51745;50.872;4.732;2022-07-01T04:52:18;11.90;99.90
9640;DHT22;51745;50.872;4.732;2022-07-01T04:55:07;11.80;99.90
9640;DHT22;51745;50.872;4.732;2022-07-01T04:57:54;11.80;99.90
9640;DHT22;51745;50.872;4.732;2022-07-01T05:00:43;11.80;99.90
9640;DHT22;51745;50.872;4.732;2022-07-01T05:03:31;11.80;99.90
9640;DHT22;51745;50.872;4.732;2022-07-01T05:06:21;11.80;99.90
9640;DHT22;51745;50.872;4.732;2022-07-01T05:09:09;11.90;99.90
9640;DHT22;51745;50.872;4.732;2022-07-01T05:11:57;12.10;99.90
9640;DHT22;51745;50.872;4.732;2022-07-01T05:14:45;12.30;99.90
9640;DHT22;51745;50.872;4.732;2022-07-01T05:17:34;12.50;99.90
9640;DHT22;51745;50.872;4.732;2022-07-01T05:20:39;12.70;99.90
9640;DHT22;51745;50.872;4.732;2022-07-01T05:23:44;12.90;99.90
9640;DHT22;51745;50.872;4.732;2022-07-01T05:26:32;12.90;99.90
9640;DHT22;51745;50.872;4.732;2022-07-01T05:29:21;13.00;99.90
9640;DHT22;51745;50.872;4.732;2022-07-01T05:32:12;12.80;99.90
9640;DHT22;51745;50.872;4.732;2022-07-01T05:35:01;12.80;99.90
9640;DHT22;51745;50.872;4.732;2022-07-01T05:37:50;12.80;99.90
9640;DHT22;51745;50.872;4.732;2022-07-01T05:40:38;12.80;99.90
9640;DHT22;51745;50.872;4.732;2022-07-01T05:43:26;12.60;99.90
9640;DHT22;51745;50.872;4.732;2022-07-01T05:46:13;12.40;99.90
9640;DHT22;51745;50.872;4.732;2022-07-01T05:49:01;12.30;99.90
9640;DHT22;51745;50.872;4.732;2022-07-01T05:51:50;12.30;99.90
9640;DHT22;51745;50.872;4.732;2022-07-01T05:54:37;12.20;99.90
9640;DHT22;51745;50.872;4.732;2022-07-01T05:57:26;12.20;99.90
9640;DHT22;51745;50.872;4.732;2022-07-01T06:00:14;12.30;99.90
9640;DHT22;51745;50.872;4.732;2022-07-01T06:03:05;12.40;99.90
9640;DHT22;51745;50.872;4.732;2022-07-01T06:05:53;12.50;99.90
9640;DHT22;51745;50.872;4.732;2022-07-01T06:08:42;12.50;99.90
9640;DHT22;51745;50.872;4.732;2022-07-01T06:11:30;12.40;99.90
9640;DHT22;51745;50.872;4.732;2022-07-01T06:14:18;12.50;99.90
9640;DHT22;51745;50.872;4.732;2022-07-01T06:17:06;12.50;99.90
9640;DHT22;51745;50.872;4.732;2022-07-01T06:19:54;12.70;99.90
9640;DHT22;51745;50.872;4.732;2022-07-01T06:22:41;12.80;99.90
9640;DHT22;51745;50.872;4.732;2022-07-01T06:25:31;12.80;99.90
9640;DHT22;51745;50.872;4.732;2022-07-01T06:28:18;13.50;99.90
9640;DHT22;51745;50.872;4.732;2022-07-01T06:31:06;12.70;99.90
9640;DHT22;51745;50.872;4.732;2022-07-01T06:33:54;12.70;99.90
9640;DHT22;51745;50.872;4.732;2022-07-01T06:36:45;12.80;99.90
9640;DHT22;51745;50.872;4.732;2022-07-01T06:39:33;12.80;99.90
9640;DHT22;51745;50.872;4.732;2022-07-01T06:42:22;12.90;99.90
9640;DHT22;51745;50.872;4.732;2022-07-01T06:45:13;13.90;99.90
9640;DHT22;51745;50.872;4.732;2022-07-01T06:48:01;13.00;99.90
9640;DHT22;51745;50.872;4.732;2022-07-01T06:50:49;13.10;99.90
9640;DHT22;51745;50.872;4.732;2022-07-01T06:53:37;12.90;99.90
9640;DHT22;51745;50.872;4.732;2022-07-01T06:56:25;12.90;99.90
9640;DHT22;51745;50.872;4.732;2022-07-01T06:59:14;12.90;99.90
9640;DHT22;51745;50.872;4.732;2022-07-01T07:02:02;12.90;99.90
9640;DHT22;51745;50.872;4.732;2022-07-01T07:04:52;13.00;99.90
9640;DHT22;51745;50.872;4.732;2022-07-01T07:07:46;13.00;99.90
9640;DHT22;51745;50.872;4.732;2022-07-01T07:10:34;13.10;99.90
9640;DHT22;51745;50.872;4.732;2022-07-01T07:13:22;13.40;99.90
9640;DHT22;51745;50.872;4.732;2022-07-01T07:16:11;13.40;99.90
9640;DHT22;51745;50.872;4.732;2022-07-01T07:18:59;13.60;99.90
9640;DHT22;51745;50.872;4.732;2022-07-01T07:21:47;13.60;99.90
9640;DHT22;51745;50.872;4.732;2022-07-01T07:24:35;13.60;99.90
9640;DHT22;51745;50.872;4.732;2022-07-01T07:27:23;13.70;99.90
9640;DHT22;51745;50.872;4.732;2022-07-01T07:30:16;13.80;99.90
9640;DHT22;51745;50.872;4.732;2022-07-01T07:33:05;13.90;99.90
9640;DHT22;51745;50.872;4.732;2022-07-01T07:35:53;13.90;99.90
9640;DHT22;51745;50.872;4.732;2022-07-01T07:38:41;14.00;99.90
9640;DHT22;51745;50.872;4.732;2022-07-01T07:41:28;14.00;99.90
9640;DHT22;51745;50.872;4.732;2022-07-01T07:44:17;14.20;99.90
9640;DHT22;51745;50.872;4.732;2022-07-01T07:47:06;14.30;99.90
9640;DHT22;51745;50.872;4.732;2022-07-01T07:49:56;14.30;99.90
9640;DHT22;51745;50.872;4.732;2022-07-01T07:52:44;14.40;99.90
9640;DHT22;51745;50.872;4.732;2022-07-01T07:55:33;14.40;99.90
9640;DHT22;51745;50.872;4.732;2022-07-01T07:58:21;14.50;99.90
9640;DHT22;51745;50.872;4.732;2022-07-01T08:01:11;14.40;99.90
9640;DHT22;51745;50.872;4.732;2022-07-01T08:03:59;14.60;99.90
9640;DHT22;51745;50.872;4.732;2022-07-01T08:06:48;14.50;99.90
9640;DHT22;51745;50.872;4.732;2022-07-01T08:09:37;14.50;99.90
9640;DHT22;51745;50.872;4.732;2022-07-01T08:12:24;14.40;99.90
9640;DHT22;51745;50.872;4.732;2022-07-01T08:15:17;14.50;99.90
9640;DHT22;51745;50.872;4.732;2022-07-01T08:18:05;14.80;99.90
9640;DHT22;51745;50.872;4.732;2022-07-01T08:20:56;14.90;99.90
9640;DHT22;51745;50.872;4.732;2022-07-01T08:23:49;15.00;99.90
9640;DHT22;51745;50.872;4.732;2022-07-01T08:26:40;15.00;99.90
9640;DHT22;51745;50.872;4.732;2022-07-01T08:29:27;14.90;99.90
9640;DHT22;51745;50.872;4.732;2022-07-01T08:32:15;14.80;99.90
9640;DHT22;51745;50.872;4.732;2022-07-01T08:35:03;14.10;99.90
9640;DHT22;51745;50.872;4.732;2022-07-01T08:37:50;14.90;99.90
9640;DHT22;51745;50.872;4.732;2022-07-01T08:40:40;15.00;99.90
9640;DHT22;51745;50.872;4.732;2022-07-01T08:43:27;15.20;99.90
9640;DHT22;51745;50.872;4.732;2022-07-01T08:46:15;15.30;99.90
9640;DHT22;51745;50.872;4.732;2022-07-01T08:49:02;15.60;99.90
9640;DHT22;51745;50.872;4.732;2022-07-01T08:51:51;15.40;99.90
9640;DHT22;51745;50.872;4.732;2022-07-01T08:54:38;15.50;99.90
9640;DHT22;51745;50.872;4.732;2022-07-01T08:57:29;15.60;99.90
9640;DHT22;51745;50.872;4.732;2022-07-01T09:00:17;15.70;99.90
9640;DHT22;51745;50.872;4.732;2022-07-01T09:03:05;15.70;99.90
9640;DHT22;51745;50.872;4.732;2022-07-01T09:05:52;15.90;99.90
9640;DHT22;51745;50.872;4.732;2022-07-01T09:08:40;16.10;99.90
9640;DHT22;51745;50.872;4.732;2022-07-01T09:11:28;16.20;99.90
9640;DHT22;51745;50.872;4.732;2022-07-01T09:14:17;16.10;99.90
9640;DHT22;51745;50.872;4.732;2022-07-01T09:17:05;16.80;99.90
9640;DHT22;51745;50.872;4.732;2022-07-01T09:19:53;16.90;99.90
9640;DHT22;51745;50.872;4.732;2022-07-01T09:22:43;17.00;99.90
9640;DHT22;51745;50.872;4.732;2022-07-01T09:25:45;17.10;99.90
9640;DHT22;51745;50.872;4.732;2022-07-01T09:28:40;17.10;99.90
9640;DHT22;51745;50.872;4.732;2022-07-01T09:31:32;17.20;99.90
9640;DHT22;51745;50.872;4.732;2022-07-01T09:34:20;17.30;99.90
9640;DHT22;51745;50.872;4.732;2022-07-01T09:37:10;17.40;99.90
9640;DHT22;51745;50.872;4.732;2022-07-01T09:39:59;17.40;99.90
9640;DHT22;51745;50.872;4.732;2022-07-01T09:42:47;16.40;99.90
9640;DHT22;51745;50.872;4.732;2022-07-01T09:45:34;17.60;99.90
9640;DHT22;51745;50.872;4.732;2022-07-01T09:48:25;17.50;99.90
9640;DHT22;51745;50.872;4.732;2022-07-01T09:51:13;17.20;99.90
9640;DHT22;51745;50.872;4.732;2022-07-01T09:54:01;17.10;99.90
9640;DHT22;51745;50.872;4.732;2022-07-01T09:56:50;17.10;99.90
9640;DHT22;51745;50.872;4.732;2022-07-01T09:59:38;17.20;99.90
9640;DHT22;51745;50.872;4.732;2022-07-01T10:02:26;17.20;99.90
9640;DHT22;51745;50.872;4.732;2022-07-01T10:05:19;17.40;99.90
9640;DHT22;51745;50.872;4.732;2022-07-01T10:14:22;18.00;99.90
9640;DHT22;51745;50.872;4.732;2022-07-01T10:17:13;18.00;99.90
9640;DHT22;51745;50.872;4.732;2022-07-01T10:20:14;18.00;99.90
9640;DHT22;51745;50.872;4.732;2022-07-01T10:23:10;18.00;99.90
9640;DHT22;51745;50.872;4.732;2022-07-01T10:26:01;17.70;99.90
9640;DHT22;51745;50.872;4.732;2022-07-01T10:28:50;17.70;99.90
9640;DHT22;51745;50.872;4.732;2022-07-01T10:31:38;17.60;99.90
9640;DHT22;51745;50.872;4.732;2022-07-01T10:34:34;17.90;99.90
9640;DHT22;51745;50.872;4.732;2022-07-01T10:37:24;18.30;99.90
9640;DHT22;51745;50.872;4.732;2022-07-01T10:40:13;18.60;99.90
9640;DHT22;51745;50.872;4.732;2022-07-01T10:43:00;18.90;99.90
9640;DHT22;51745;50.872;4.732;2022-07-01T10:46:08;19.00;99.90
9640;DHT22;51745;50.872;4.732;2022-07-01T10:48:55;19.40;99.90
9640;DHT22;51745;50.872;4.732;2022-07-01T10:51:49;19.90;99.90
9640;DHT22;51745;50.872;4.732;2022-07-01T10:54:47;19.80;99.90
9640;DHT22;51745;50.872;4.732;2022-07-01T10:57:41;19.50;99.90
9640;DHT22;51745;50.872;4.732;2022-07-01T11:00:32;19.10;99.90
9640;DHT22;51745;50.872;4.732;2022-07-01T11:03:22;18.80;99.90
9640;DHT22;51745;50.872;4.732;2022-07-01T11:06:10;18.40;99.90
9640;DHT22;51745;50.872;4.732;2022-07-01T11:08:58;18.00;99.90
9640;DHT22;51745;50.872;4.732;2022-07-01T11:11:45;17.80;99.90
9640;DHT22;51745;50.872;4.732;2022-07-01T11:14:34;17.60;99.90
9640;DHT22;51745;50.872;4.732;2022-07-01T11:17:23;17.50;99.90
9640;DHT22;51745;50.872;4.732;2022-07-01T11:20:11;17.50;99.90
9640;DHT22;51745;50.872;4.732;2022-07-01T11:22:58;17.50;99.90
9640;DHT22;51745;50.872;4.732;2022-07-01T11:25:46;17.60;99.90
9640;DHT22;51745;50.872;4.732;2022-07-01T11:28:38;17.60;99.90
9640;DHT22;51745;50.872;4.732;2022-07-01T11:31:29;17.60;99.90
9640;DHT22;51745;50.872;4.732;2022-07-01T11:34:17;17.60;99.90
9640;DHT22;51745;50.872;4.732;2022-07-01T11:37:09;17.60;99.90
9640;DHT22;51745;50.872;4.732;2022-07-01T11:40:25;17.70;99.90
9640;DHT22;51745;50.872;4.732;2022-07-01T11:43:19;18.20;99.90
9640;DHT22;51745;50.872;4.732;2022-07-01T11:46:08;18.70;99.90
9640;DHT22;51745;50.872;4.732;2022-07-01T11:48:58;19.00;99.90
9640;DHT22;51745;50.872;4.732;2022-07-01T11:51:53;19.10;99.90
9640;DHT22;51745;50.872;4.732;2022-07-01T11:54:43;19.20;99.90
9640;DHT22;51745;50.872;4.732;2022-07-01T11:57:31;19.20;99.90
9640;DHT22;51745;50.872;4.732;2022-07-01T12:00:21;19.10;99.90
9640;DHT22;51745;50.872;4.732;2022-07-01T12:03:09;19.00;99.90
9640;DHT22;51745;50.872;4.732;2022-07-01T12:05:59;19.20;99.90
9640;DHT22;51745;50.872;4.732;2022-07-01T12:08:47;19.40;99.90
9640;DHT22;51745;50.872;4.732;2022-07-01T12:11:35;19.70;99.90
9640;DHT22;51745;50.872;4.732;2022-07-01T12:14:25;19.90;99.90
9640;DHT22;51745;50.872;4.732;2022-07-01T12:17:14;20.30;99.90
9640;DHT22;51745;50.872;4.732;2022-07-01T12:20:03;20.30;99.90
9640;DHT22;51745;50.872;4.732;2022-07-01T12:22:52;20.40;99.90
9640;DHT22;51745;50.872;4.732;2022-07-01T12:25:41;20.50;99.90
9640;DHT22;51745;50.872;4.732;2022-07-01T12:28:33;20.70;99.90
9640;DHT22;51745;50.872;4.732;2022-07-01T12:31:21;20.90;99.90
9640;DHT22;51745;50.872;4.732;2022-07-01T12:34:08;21.00;99.90
9640;DHT22;51745;50.872;4.732;2022-07-01T12:36:56;21.00;99.90
9640;DHT22;51745;50.872;4.732;2022-07-01T12:39:47;21.10;99.90
9640;DHT22;51745;50.872;4.732;2022-07-01T12:42:36;21.20;99.90
9640;DHT22;51745;50.872;4.732;2022-07-01T12:45:25;21.40;99.90
9640;DHT22;51745;50.872;4.732;2022-07-01T12:48:13;21.60;99.90
9640;DHT22;51745;50.872;4.732;2022-07-01T12:51:01;21.50;99.90
9640;DHT22;51745;50.872;4.732;2022-07-01T12:53:49;21.40;99.90
9640;DHT22;51745;50.872;4.732;2022-07-01T12:56:38;21.30;99.90
9640;DHT22;51745;50.872;4.732;2022-07-01T12:59:25;21.60;99.90
9640;DHT22;51745;50.872;4.732;2022-07-01T13:02:13;21.50;99.90
9640;DHT22;51745;50.872;4.732;2022-07-01T13:05:01;21.70;99.90
9640;DHT22;51745;50.872;4.732;2022-07-01T13:07:48;21.80;99.90
9640;DHT22;51745;50.872;4.732;2022-07-01T13:10:36;22.00;99.90
9640;DHT22;51745;50.872;4.732;2022-07-01T13:13:25;22.20;99.90
9640;DHT22;51745;50.872;4.732;2022-07-01T13:16:12;22.30;99.90
9640;DHT22;51745;50.872;4.732;2022-07-01T13:19:00;22.40;99.90
9640;DHT22;51745;50.872;4.732;2022-07-01T13:21:48;22.30;99.90
9640;DHT22;51745;50.872;4.732;2022-07-01T13:24:36;22.10;99.90
9640;DHT22;51745;50.872;4.732;2022-07-01T13:27:24;21.90;99.90
9640;DHT22;51745;50.872;4.732;2022-07-01T13:30:13;21.80;99.90
9640;DHT22;51745;50.872;4.732;2022-07-01T13:33:02;22.10;99.90
9640;DHT22;51745;50.872;4.732;2022-07-01T13:35:49;22.50;99.90
9640;DHT22;51745;50.872;4.732;2022-07-01T13:38:38;22.90;99.90
9640;DHT22;51745;50.872;4.732;2022-07-01T13:41:26;23.20;99.90
9640;DHT22;51745;50.872;4.732;2022-07-01T13:44:14;23.10;99.60
9640;DHT22;51745;50.872;4.732;2022-07-01T13:47:10;23.00;99.90
9640;DHT22;51745;50.872;4.732;2022-07-01T13:50:04;22.90;99.90
9640;DHT22;51745;50.872;4.732;2022-07-01T13:52:52;22.70;99.90
9640;DHT22;51745;50.872;4.732;2022-07-01T13:56:00;22.50;99.90
9640;DHT22;51745;50.872;4.732;2022-07-01T13:58:47;22.30;99.90
9640;DHT22;51745;50.872;4.732;2022-07-01T14:01:38;22.20;99.90
9640;DHT22;51745;50.872;4.732;2022-07-01T14:04:27;22.30;99.90
9640;DHT22;51745;50.872;4.732;2022-07-01T14:07:14;22.40;99.90
9640;DHT22;51745;50.872;4.732;2022-07-01T14:10:02;22.80;99.90
9640;DHT22;51745;50.872;4.732;2022-07-01T14:12:50;22.90;99.90
9640;DHT22;51745;50.872;4.732;2022-07-01T14:15:40;22.90;99.90
9640;DHT22;51745;50.872;4.732;2022-07-01T14:18:28;22.80;99.10
9640;DHT22;51745;50.872;4.732;2022-07-01T14:21:20;23.00;99.90
9640;DHT22;51745;50.872;4.732;2022-07-01T14:24:17;23.20;99.90
9640;DHT22;51745;50.872;4.732;2022-07-01T14:27:05;23.80;99.90
9640;DHT22;51745;50.872;4.732;2022-07-01T14:29:56;22.50;99.90
9640;DHT22;51745;50.872;4.732;2022-07-01T14:32:49;23.10;99.90
9640;DHT22;51745;50.872;4.732;2022-07-01T14:35:39;23.20;99.30
9640;DHT22;51745;50.872;4.732;2022-07-01T14:38:29;22.70;98.90
9640;DHT22;51745;50.872;4.732;2022-07-01T14:41:17;22.50;99.60
9640;DHT22;51745;50.872;4.732;2022-07-01T14:44:08;22.30;99.90
9640;DHT22;51745;50.872;4.732;2022-07-01T14:46:55;22.10;99.90
9640;DHT22;51745;50.872;4.732;2022-07-01T14:49:44;22.10;99.90
9640;DHT22;51745;50.872;4.732;2022-07-01T14:52:32;22.60;99.90
9640;DHT22;51745;50.872;4.732;2022-07-01T14:55:24;21.80;99.90
9640;DHT22;51745;50.872;4.732;2022-07-01T14:58:11;21.70;99.90
9640;DHT22;51745;50.872;4.732;2022-07-01T15:00:59;21.40;99.90
9640;DHT22;51745;50.872;4.732;2022-07-01T15:03:46;21.20;99.90
9640;DHT22;51745;50.872;4.732;2022-07-01T15:06:34;21.10;99.90
9640;DHT22;51745;50.872;4.732;2022-07-01T15:09:22;21.10;99.90
9640;DHT22;51745;50.872;4.732;2022-07-01T15:12:12;20.80;99.90
9640;DHT22;51745;50.872;4.732;2022-07-01T15:15:02;21.30;99.90
9640;DHT22;51745;50.872;4.732;2022-07-01T15:17:50;21.40;99.90
9640;DHT22;51745;50.872;4.732;2022-07-01T15:20:38;21.40;99.90
9640;DHT22;51745;50.872;4.732;2022-07-01T15:23:26;21.20;99.90
9640;DHT22;51745;50.872;4.732;2022-07-01T15:26:14;21.30;99.90
9640;DHT22;51745;50.872;4.732;2022-07-01T15:29:04;21.50;99.90
9640;DHT22;51745;50.872;4.732;2022-07-01T15:31:54;22.10;99.90
9640;DHT22;51745;50.872;4.732;2022-07-01T15:34:45;22.60;99.90
9640;DHT22;51745;50.872;4.732;2022-07-01T15:37:32;22.90;99.80
9640;DHT22;51745;50.872;4.732;2022-07-01T15:40:19;23.00;99.90
9640;DHT22;51745;50.872;4.732;2022-07-01T15:43:08;22.90;99.90
9640;DHT22;51745;50.872;4.732;2022-07-01T15:45:57;23.10;99.90
9640;DHT22;51745;50.872;4.732;2022-07-01T15:48:44;22.80;99.90
9640;DHT22;51745;50.872;4.732;2022-07-01T15:51:32;22.60;99.90
9640;DHT22;51745;50.872;4.732;2022-07-01T15:54:20;22.40;99.90
9640;DHT22;51745;50.872;4.732;2022-07-01T15:57:11;22.30;99.90
9640;DHT22;51745;50.872;4.732;2022-07-01T16:00:04;22.00;99.90
9640;DHT22;51745;50.872;4.732;2022-07-01T16:02:53;22.00;99.90
9640;DHT22;51745;50.872;4.732;2022-07-01T16:05:43;22.00;99.80
9640;DHT22;51745;50.872;4.732;2022-07-01T16:08:32;22.20;99.90
9640;DHT22;51745;50.872;4.732;2022-07-01T16:11:20;22.40;99.90
9640;DHT22;51745;50.872;4.732;2022-07-01T16:14:11;22.20;99.90
9640;DHT22;51745;50.872;4.732;2022-07-01T16:17:02;22.00;99.90
9640;DHT22;51745;50.872;4.732;2022-07-01T16:19:53;21.70;99.90
9640;DHT22;51745;50.872;4.732;2022-07-01T16:22:41;21.70;99.90
9640;DHT22;51745;50.872;4.732;2022-07-01T16:25:32;21.80;99.90
9640;DHT22;51745;50.872;4.732;2022-07-01T16:28:20;21.80;99.90
9640;DHT22;51745;50.872;4.732;2022-07-01T16:31:09;21.70;99.90
9640;DHT22;51745;50.872;4.732;2022-07-01T16:34:02;21.40;99.90
9640;DHT22;51745;50.872;4.732;2022-07-01T16:36:52;21.50;99.90
9640;DHT22;51745;50.872;4.732;2022-07-01T16:39:42;21.50;99.90
9640;DHT22;51745;50.872;4.732;2022-07-01T16:42:29;21.80;99.90
9640;DHT22;51745;50.872;4.732;2022-07-01T16:45:18;21.80;99.90
9640;DHT22;51745;50.872;4.732;2022-07-01T16:48:15;22.00;99.90
9640;DHT22;51745;50.872;4.732;2022-07-01T16:51:03;22.10;99.90
9640;DHT22;51745;50.872;4.732;2022-07-01T16:53:54;22.30;99.90
9640;DHT22;51745;50.872;4.732;2022-07-01T16:56:43;22.40;99.90
9640;DHT22;51745;50.872;4.732;2022-07-01T16:59:52;22.50;99.90
9640;DHT22;51745;50.872;4.732;2022-07-01T17:02:40;22.30;99.90
9640;DHT22;51745;50.872;4.732;2022-07-01T17:05:30;22.20;99.90
9640;DHT22;51745;50.872;4.732;2022-07-01T17:08:18;21.90;99.90
9640;DHT22;51745;50.872;4.732;2022-07-01T17:11:08;22.10;99.90
9640;DHT22;51745;50.872;4.732;2022-07-01T17:13:56;21.10;99.90
9640;DHT22;51745;50.872;4.732;2022-07-01T17:16:45;20.90;99.90
9640;DHT22;51745;50.872;4.732;2022-07-01T17:19:34;20.70;99.90
9640;DHT22;51745;50.872;4.732;2022-07-01T17:22:24;20.60;99.90
9640;DHT22;51745;50.872;4.732;2022-07-01T17:25:24;20.50;99.90
9640;DHT22;51745;50.872;4.732;2022-07-01T17:29:15;20.20;99.90
9640;DHT22;51745;50.872;4.732;2022-07-01T17:32:06;20.10;99.90
9640;DHT22;51745;50.872;4.732;2022-07-01T17:34:54;19.90;99.90
9640;DHT22;51745;50.872;4.732;2022-07-01T17:37:41;19.80;99.90
9640;DHT22;51745;50.872;4.732;2022-07-01T17:40:42;19.10;99.90
9640;DHT22;51745;50.872;4.732;2022-07-01T17:43:30;18.70;99.90
9640;DHT22;51745;50.872;4.732;2022-07-01T17:46:19;19.90;99.90
9640;DHT22;51745;50.872;4.732;2022-07-01T17:49:08;19.90;99.90
9640;DHT22;51745;50.872;4.732;2022-07-01T17:51:59;19.90;99.90
9640;DHT22;51745;50.872;4.732;2022-07-01T17:54:49;19.80;99.90
9640;DHT22;51745;50.872;4.732;2022-07-01T17:57:38;20.20;99.90
9640;DHT22;51745;50.872;4.732;2022-07-01T18:00:25;19.80;99.90
9640;DHT22;51745;50.872;4.732;2022-07-01T18:03:17;19.80;99.90
9640;DHT22;51745;50.872;4.732;2022-07-01T18:06:08;19.70;99.90
9640;DHT22;51745;50.872;4.732;2022-07-01T18:08:59;19.80;99.90
9640;DHT22;51745;50.872;4.732;2022-07-01T18:11:47;19.60;99.90
9640;DHT22;51745;50.872;4.732;2022-07-01T18:14:45;19.60;99.90